Time;durP1;ratioP1;P1;durP2;ratioP2;P2;SDS_P1;SDS_P2;PMS_P1;PMS_P2;Temp;Humidity;BMP_temperature;BMP_pressure;BME280_temperature;BME280_humidity;BME280_pressure;Samples;Min_cycle;Max_cycle;Signal;HPM_P1;HPM_P2
2024/04/02 00:01:59;;;;;;;1.10;1.00;;;10.20;99.90;;;-141.84;59.45;19102.56;5109895;28;20195;-61
2024/04/02 00:04:25;;;;;;;1.20;1.10;;;10.20;99.90;;;-141.84;59.55;19070.06;5109818;28;20756;-61
2024/04/02 00:06:53;;;;;;;0.80;0.80;;;10.20;99.90;;;-141.84;60.45;19059.91;5112969;27;20210;-61
2024/04/02 00:09:19;;;;;;;1.37;1.00;;;10.10;99.90;;;-141.84;59.11;19108.69;5113919;27;20268;-62
2024/04/02 00:11:48;;;;;;;0.90;0.90;;;10.20;99.90;;;-141.84;58.90;19100.53;5109992;28;20226;-62
2024/04/02 00:14:14;;;;;;;0.90;0.90;;;10.20;99.90;;;-141.84;59.40;19084.28;5111358;28;20231;-61
2024/04/02 00:16:41;;;;;;;1.20;1.10;;;10.20;99.90;;;-141.84;59.48;19104.59;5110734;28;20195;-61
2024/04/02 00:19:12;;;;;;;1.77;1.10;;;10.20;99.90;;;-141.84;59.76;19100.53;5113394;27;20222;-62
2024/04/02 00:21:39;;;;;;;0.90;0.90;;;10.20;99.90;;;-141.84;60.25;19094.44;5112512;27;20211;-61
2024/04/02 00:24:06;;;;;;;1.17;1.07;;;10.20;99.90;;;-141.84;60.80;19098.50;5118090;27;20263;-61
2024/04/02 00:26:33;;;;;;;1.60;1.20;;;10.20;99.90;;;-141.84;60.88;19108.69;5106645;28;20194;-61
2024/04/02 00:29:01;;;;;;;2.43;1.03;;;10.10;99.90;;;-141.84;61.31;19098.50;5106491;28;20211;-60
2024/04/02 00:31:29;;;;;;;1.17;1.07;;;10.10;99.90;;;-141.84;61.71;19086.31;5109696;28;20686;-61
2024/04/02 00:33:56;;;;;;;1.00;1.00;;;10.00;99.90;;;-141.84;61.65;19066.00;5109474;28;20227;-62
2024/04/02 00:36:23;;;;;;;1.37;1.27;;;10.00;99.90;;;-141.84;61.77;19084.28;5112849;28;20225;-61
2024/04/02 00:38:49;;;;;;;2.03;1.20;;;10.00;99.90;;;-141.84;61.03;19057.88;5109200;28;20219;-61
2024/04/02 00:41:16;;;;;;;1.10;1.03;;;10.00;99.90;;;-141.84;61.32;19086.31;5109979;28;20196;-60
2024/04/02 00:43:43;;;;;;;1.20;1.10;;;10.10;99.90;;;-141.84;61.31;19080.22;5112304;28;20211;-61
2024/04/02 00:46:11;;;;;;;1.30;1.20;;;10.10;99.90;;;-141.84;62.18;19055.84;5113193;28;20320;-62
2024/04/02 00:48:38;;;;;;;1.83;1.37;;;10.10;99.90;;;-141.84;61.50;19059.91;5112373;28;20588;-61
2024/04/02 00:51:06;;;;;;;2.37;1.57;;;10.10;99.90;;;-141.84;61.38;19088.34;5110776;28;20262;-61
2024/04/02 00:53:32;;;;;;;2.60;1.23;;;10.10;99.90;;;-141.84;61.54;19080.22;5114526;28;20203;-61
2024/04/02 00:56:02;;;;;;;2.30;1.50;;;10.10;99.90;;;-141.84;61.31;19080.22;5113701;28;20267;-66
2024/04/02 00:58:29;;;;;;;1.37;1.27;;;10.10;99.90;;;-141.84;62.23;19110.72;5103750;28;20223;-61
2024/04/02 01:00:58;;;;;;;2.20;1.33;;;10.10;99.90;;;-141.84;62.16;19088.34;5106040;28;20219;-62
2024/04/02 01:03:26;;;;;;;2.13;1.10;;;10.10;99.90;;;-141.84;62.76;19094.44;5110131;28;20219;-61
2024/04/02 01:05:54;;;;;;;1.83;1.40;;;10.10;99.90;;;-141.84;63.09;19092.41;5104409;28;21015;-60
2024/04/02 01:08:20;;;;;;;1.40;1.30;;;10.10;99.90;;;-141.84;62.45;19068.03;5112429;28;20628;-61
2024/04/02 01:10:48;;;;;;;1.43;1.30;;;10.10;99.90;;;-141.84;61.96;19086.31;5113053;28;20194;-61
2024/04/02 01:13:15;;;;;;;2.27;1.40;;;10.20;99.90;;;-141.84;62.45;19104.59;5104507;28;20222;-61
2024/04/02 01:15:42;;;;;;;2.10;1.40;;;10.20;99.90;;;-141.84;63.18;19080.22;5105116;28;20216;-61
2024/04/02 01:18:09;;;;;;;1.73;1.40;;;10.20;99.90;;;-141.84;63.57;19088.34;5108792;28;20276;-61
2024/04/02 01:20:37;;;;;;;1.37;1.27;;;10.10;99.90;;;-141.84;63.24;19090.38;5113341;28;20603;-61
2024/04/02 01:23:06;;;;;;;1.30;1.20;;;10.20;99.90;;;-141.84;62.93;19078.19;5113210;28;20198;-61
2024/04/02 01:25:34;;;;;;;1.40;1.30;;;10.20;99.90;;;-141.84;64.13;19076.16;5116924;28;20222;-61
2024/04/02 01:28:01;;;;;;;1.80;1.70;;;10.10;99.90;;;-141.84;63.94;19116.81;5124834;27;20279;-62
2024/04/02 01:30:28;;;;;;;2.93;1.23;;;10.10;99.90;;;-141.84;63.67;19106.66;5121202;27;20582;-62
2024/04/02 01:32:54;;;;;;;1.47;1.37;;;10.20;99.90;;;-141.84;64.27;19092.41;5121510;27;20693;-62
2024/04/02 01:35:21;;;;;;;2.23;1.40;;;10.20;99.90;;;-141.84;64.27;19122.91;5125510;27;20860;-61
2024/04/02 01:37:48;;;;;;;3.03;1.70;;;10.20;99.90;;;-141.84;63.59;19084.28;5121648;27;20247;-62
2024/04/02 01:40:15;;;;;;;1.83;1.60;;;10.20;99.90;;;-141.84;64.76;19070.06;5121284;27;20214;-61
2024/04/02 01:42:43;;;;;;;1.40;1.30;;;10.10;99.90;;;-141.84;65.79;19074.13;5120659;27;20210;-60
2024/04/02 01:45:10;;;;;;;1.40;1.30;;;10.10;99.90;;;-141.84;66.07;19100.53;5122135;27;20215;-62
2024/04/02 01:47:37;;;;;;;2.60;1.73;;;10.00;99.90;;;-141.84;66.79;19082.25;5121808;27;20218;-62
2024/04/02 01:50:05;;;;;;;1.87;1.50;;;10.00;99.90;;;-141.84;65.98;19102.56;5121784;27;20198;-62
2024/04/02 01:52:31;;;;;;;2.73;1.70;;;10.00;99.90;;;-141.84;65.92;19082.25;5120511;27;20223;-61
2024/04/02 01:54:58;;;;;;;1.80;1.63;;;10.10;99.90;;;-141.84;66.61;19070.06;5123469;27;20215;-61
2024/04/02 01:57:25;;;;;;;3.40;1.50;;;10.10;99.90;;;-141.84;66.32;19104.59;5121606;27;20271;-62
2024/04/02 01:59:53;;;;;;;1.40;1.30;;;10.10;99.90;;;-141.84;65.90;19090.38;5121111;27;20223;-60
2024/04/02 02:02:19;;;;;;;1.73;1.63;;;10.10;99.90;;;-141.84;66.21;19098.50;5124721;27;20237;-61
2024/04/02 02:04:47;;;;;;;1.70;1.60;;;10.10;99.90;;;-141.84;66.84;19110.72;5121283;27;20187;-61
2024/04/02 02:07:13;;;;;;;1.60;1.50;;;10.10;99.90;;;-141.84;67.11;19096.47;5122562;27;20219;-61
2024/04/02 02:09:40;;;;;;;1.80;1.60;;;10.10;99.90;;;-141.84;66.89;19088.34;5123489;27;20574;-61
2024/04/02 02:12:07;;;;;;;2.47;1.60;;;10.10;99.90;;;-141.84;67.54;19159.47;5122824;27;20707;-61
2024/04/02 02:14:34;;;;;;;1.67;1.40;;;10.10;99.90;;;-141.84;66.47;19084.28;5119413;27;20237;-61
2024/04/02 02:17:02;;;;;;;1.53;1.40;;;10.20;99.90;;;-141.84;66.58;19116.81;5123208;27;20210;-61
2024/04/02 02:19:30;;;;;;;1.70;1.60;;;10.20;99.90;;;-141.84;66.40;19092.41;5123072;27;20230;-61
2024/04/02 02:21:56;;;;;;;1.60;1.50;;;10.20;99.90;;;-141.84;66.29;19098.50;5120027;27;20215;-60
2024/04/02 02:24:23;;;;;;;1.90;1.80;;;10.30;99.90;;;-141.84;65.14;19078.19;5118814;27;20217;-60
2024/04/02 02:26:51;;;;;;;2.63;1.67;;;10.30;99.90;;;-141.84;65.39;19086.31;5117575;27;20698;-61
2024/04/02 02:29:22;;;;;;;2.33;1.70;;;10.50;99.90;;;-141.84;66.38;19094.44;5120241;27;20663;-60
2024/04/02 02:31:48;;;;;;;2.17;1.70;;;10.30;99.90;;;-141.84;67.69;19118.84;5120920;27;20218;-61
2024/04/02 02:34:17;;;;;;;1.87;1.77;;;10.30;99.90;;;-141.84;67.38;19110.72;5120279;27;20223;-61
2024/04/02 02:36:43;;;;;;;1.87;1.77;;;10.30;99.90;;;-141.84;68.06;19131.03;5119892;27;20223;-62
2024/04/02 02:39:11;;;;;;;2.30;1.80;;;10.30;99.90;;;-141.84;67.78;19112.75;5120517;27;20263;-61
2024/04/02 02:41:38;;;;;;;2.07;1.70;;;10.30;99.90;;;-141.84;67.38;19100.53;5121946;27;20572;-61
2024/04/02 02:44:06;;;;;;;1.93;1.70;;;10.30;99.90;;;-141.84;66.58;19090.38;5116102;27;20203;-61
2024/04/02 02:46:32;;;;;;;2.10;1.90;;;10.30;99.90;;;-141.84;66.53;19102.56;5114077;27;20268;-60
2024/04/02 02:49:01;;;;;;;1.83;1.73;;;10.30;99.90;;;-141.84;65.86;19100.53;5114701;27;20728;-61
2024/04/02 02:51:29;;;;;;;1.67;1.57;;;10.40;99.90;;;-141.84;66.29;19078.19;5113844;27;20813;-61
2024/04/02 02:53:56;;;;;;;2.13;1.80;;;10.40;99.90;;;-141.84;66.57;19100.53;5117128;27;20238;-61
2024/04/02 02:56:22;;;;;;;2.30;2.10;;;10.40;99.90;;;-141.84;66.77;19104.59;5117813;27;20219;-62
2024/04/02 02:58:51;;;;;;;3.70;1.77;;;10.40;99.90;;;-141.84;66.31;19080.22;5116196;27;20647;-61
2024/04/02 03:01:18;;;;;;;1.70;1.60;;;10.40;99.90;;;-141.84;66.11;19076.16;5112818;27;20769;-61
2024/04/02 03:03:48;;;;;;;1.90;1.80;;;10.40;99.90;;;-141.84;67.00;19139.16;5113779;27;20229;-60
2024/04/02 03:06:14;;;;;;;1.97;1.80;;;10.40;99.90;;;-141.84;65.87;19076.16;5110996;27;20269;-61
2024/04/02 03:08:43;;;;;;;1.70;1.60;;;10.40;99.90;;;-141.84;65.81;19086.31;5113551;27;20778;-61
2024/04/02 03:11:09;;;;;;;2.20;1.70;;;10.40;99.90;;;-141.84;66.28;19078.19;5111402;28;20204;-62
2024/04/02 03:13:37;;;;;;;3.53;1.70;;;10.40;99.90;;;-141.84;66.18;19084.28;5113398;27;20254;-61
2024/04/02 03:16:04;;;;;;;1.87;1.70;;;10.40;99.90;;;-141.84;66.05;19082.25;5112825;27;20225;-61
2024/04/02 03:18:32;;;;;;;2.00;1.80;;;10.40;99.90;;;-141.84;67.18;19094.44;5122060;27;20215;-62
2024/04/02 03:21:00;;;;;;;2.57;1.50;;;10.40;99.90;;;-141.84;67.63;19112.75;5117781;27;20279;-61
2024/04/02 03:23:27;;;;;;;2.00;1.80;;;10.30;99.90;;;-141.84;68.38;19131.03;5114008;27;20194;-61
2024/04/02 03:25:58;;;;;;;2.07;1.90;;;10.20;99.90;;;-141.84;68.82;19108.69;5116711;27;20195;-61
2024/04/02 03:28:28;;;;;;;2.57;2.00;;;10.20;99.90;;;-141.84;69.07;19108.69;5122181;27;20214;-61
2024/04/02 03:30:57;;;;;;;2.10;1.90;;;10.10;99.90;;;-141.84;69.74;19185.88;5117272;27;20218;-62
2024/04/02 03:33:24;;;;;;;2.00;1.80;;;10.10;99.90;;;-141.84;70.64;19200.13;5121225;27;20222;-61
2024/04/02 03:35:50;;;;;;;1.80;1.70;;;10.10;99.90;;;-141.84;69.48;19153.38;5117101;27;20642;-61
2024/04/02 03:38:18;;;;;;;2.90;1.80;;;10.10;99.90;;;-141.84;68.75;19108.69;5112983;27;20207;-61
2024/04/02 03:40:46;;;;;;;2.30;1.83;;;10.10;99.90;;;-141.84;68.58;19074.13;5110697;28;20203;-61
2024/04/02 03:43:14;;;;;;;2.97;1.70;;;10.10;99.90;;;-141.84;68.96;19122.91;5113751;27;20222;-61
2024/04/02 03:45:42;;;;;;;2.43;1.67;;;10.10;99.90;;;-141.84;68.00;19055.84;5121666;27;20279;-61
2024/04/02 03:48:10;;;;;;;1.87;1.77;;;10.20;99.90;;;-141.84;68.47;19104.59;5113254;27;20770;-61
2024/04/02 03:50:38;;;;;;;2.47;1.80;;;10.10;99.90;;;-141.84;67.44;19039.59;5112987;27;20226;-60
2024/04/02 03:53:05;;;;;;;1.90;1.80;;;10.10;99.90;;;-141.84;68.10;19059.91;5109069;27;20231;-61
2024/04/02 03:55:37;;;;;;;2.37;2.17;;;10.20;99.90;;;-141.84;69.67;19198.09;5116717;27;20230;-62
2024/04/02 03:58:04;;;;;;;2.27;1.70;;;10.10;99.90;;;-141.84;69.52;19139.16;5119324;27;20218;-61
2024/04/02 04:00:33;;;;;;;2.30;1.97;;;10.00;99.90;;;-141.84;69.20;19131.03;5113256;27;20237;-60
2024/04/02 04:02:59;;;;;;;1.90;1.70;;;10.30;99.90;;;-141.84;69.00;19118.84;5125457;27;20244;-62
2024/04/02 04:05:26;;;;;;;2.83;1.80;;;10.10;99.90;;;-141.84;69.44;19102.56;5113575;27;20205;-62
2024/04/02 04:07:53;;;;;;;2.13;1.93;;;10.00;99.90;;;-141.84;70.68;19167.59;5110432;28;20202;-62
2024/04/02 04:10:21;;;;;;;1.90;1.80;;;10.00;99.90;;;-141.84;70.48;19151.34;5110038;28;20223;-61
2024/04/02 04:12:47;;;;;;;2.33;2.10;;;10.00;99.90;;;-141.84;69.61;19118.84;5120154;27;20222;-61
2024/04/02 04:15:15;;;;;;;1.70;1.60;;;10.00;99.90;;;-141.84;69.73;19074.13;5110863;28;20695;-62
2024/04/02 04:17:42;;;;;;;2.50;2.30;;;10.00;99.90;;;-141.84;68.80;19061.94;5121055;27;20267;-62
2024/04/02 04:20:10;;;;;;;2.40;1.90;;;10.00;99.90;;;-141.84;69.47;19112.75;5121941;27;20209;-61
2024/04/02 04:22:37;;;;;;;3.50;1.93;;;10.00;99.90;;;-141.84;69.09;19106.66;5114739;27;20605;-61
2024/04/02 04:25:05;;;;;;;3.67;2.00;;;10.00;99.90;;;-141.84;70.06;19135.09;5111894;28;20215;-60
2024/04/02 04:27:33;;;;;;;2.80;2.20;;;9.90;99.90;;;-141.84;70.02;19118.84;5111540;27;20226;-61
2024/04/02 04:30:01;;;;;;;2.27;2.07;;;9.90;99.90;;;-141.84;70.99;19161.50;5113080;28;20582;-60
2024/04/02 04:32:27;;;;;;;2.20;2.00;;;9.80;99.90;;;-141.84;71.01;19145.25;5117151;28;20210;-61
2024/04/02 04:34:56;;;;;;;2.37;2.17;;;9.80;99.90;;;-141.84;71.85;19204.19;5110189;28;20260;-62
2024/04/02 04:37:22;;;;;;;3.90;3.33;;;9.70;99.90;;;-141.84;73.20;19350.50;5109904;28;20707;-62
2024/04/02 04:39:50;;;;;;;3.03;2.37;;;9.60;99.90;;;-141.84;73.48;19391.13;5112844;28;20210;-61
2024/04/02 04:42:16;;;;;;;3.13;2.60;;;9.60;99.90;;;-141.84;74.58;19622.81;5113258;28;20631;-61
2024/04/02 04:44:44;;;;;;;4.23;2.40;;;9.50;99.90;;;-141.84;72.16;19189.97;5110763;28;20749;-61
2024/04/02 04:47:10;;;;;;;2.70;2.07;;;9.60;99.90;;;-141.84;71.05;19141.19;5110002;28;20195;-60
2024/04/02 04:49:38;;;;;;;2.60;2.40;;;9.60;99.90;;;-141.84;71.48;19163.53;5110094;28;20223;-62
2024/04/02 04:52:08;;;;;;;1.60;1.50;;;9.60;99.90;;;-141.84;71.71;19169.63;5117589;28;20277;-60
2024/04/02 04:54:36;;;;;;;4.47;3.13;;;9.70;99.90;;;-141.84;70.43;19100.53;5123666;28;20736;-61
2024/04/02 04:57:02;;;;;;;2.77;1.87;;;9.70;99.90;;;-141.84;68.93;19055.84;5110678;28;20224;-62
2024/04/02 04:59:30;;;;;;;2.80;2.17;;;9.80;99.90;;;-141.84;68.79;19035.53;5111370;28;20785;-61
2024/04/02 05:01:56;;;;;;;3.90;2.23;;;9.90;99.90;;;-141.84;68.75;19041.63;5113091;28;20663;-61
2024/04/02 05:04:23;;;;;;;2.33;2.13;;;10.00;99.90;;;-141.84;67.80;19041.63;5114351;27;20231;-62
2024/04/02 05:06:52;;;;;;;2.30;1.90;;;10.10;99.90;;;-141.84;67.96;19037.56;5116890;27;20561;-61
2024/04/02 05:09:21;;;;;;;3.80;1.73;;;10.10;99.90;;;-141.84;68.14;19053.81;5116956;27;20234;-61
2024/04/02 05:11:48;;;;;;;2.03;1.57;;;10.20;99.90;;;-141.84;68.61;19068.03;5116160;27;20229;-61
2024/04/02 05:14:15;;;;;;;1.73;1.60;;;10.20;99.90;;;-141.84;68.36;19066.00;5112704;28;20710;-61
2024/04/02 05:16:42;;;;;;;3.93;1.70;;;10.20;99.90;;;-141.84;67.18;19033.50;5113413;28;20191;-61
2024/04/02 05:19:10;;;;;;;2.27;1.63;;;10.30;99.90;;;-141.84;65.92;19035.53;5114497;27;20687;-61
2024/04/02 05:21:36;;;;;;;3.03;1.73;;;10.30;99.90;;;-141.84;65.53;19019.28;5112746;28;20234;-61
2024/04/02 05:24:04;;;;;;;2.50;1.60;;;10.40;99.90;;;-141.84;65.84;19070.06;5112615;27;20223;-61
2024/04/02 05:26:31;;;;;;;4.60;1.57;;;10.40;99.90;;;-141.84;66.14;19057.88;5116088;27;20202;-62
2024/04/02 05:28:59;;;;;;;1.33;1.23;;;10.40;99.90;;;-141.84;64.97;19049.75;5113668;28;20724;-62
2024/04/02 05:31:25;;;;;;;2.77;1.50;;;10.50;99.90;;;-141.84;64.88;19043.66;5112784;28;20245;-62
2024/04/02 05:33:52;;;;;;;1.57;1.30;;;10.50;99.90;;;-141.84;63.89;19047.72;5114048;27;20215;-62
2024/04/02 05:36:19;;;;;;;2.40;1.30;;;10.50;99.90;;;-141.84;63.98;19066.00;5116690;27;20214;-62
2024/04/02 05:38:46;;;;;;;2.03;1.53;;;10.70;99.90;;;-141.84;64.71;19057.88;5115236;27;20221;-61
2024/04/02 05:41:12;;;;;;;1.93;1.43;;;10.60;99.90;;;-141.84;64.16;19047.72;5115677;27;20901;-61
2024/04/02 05:43:41;;;;;;;1.60;1.50;;;10.60;99.90;;;-141.84;63.85;19074.13;5112787;28;20207;-61
2024/04/02 05:46:07;;;;;;;2.53;1.47;;;10.60;99.90;;;-141.84;63.62;19045.69;5116040;27;20640;-63
2024/04/02 05:48:35;;;;;;;2.37;1.57;;;10.70;99.90;;;-141.84;63.18;19039.59;5113787;27;20303;-61
2024/04/02 05:51:01;;;;;;;2.00;1.40;;;10.60;99.90;;;-141.84;63.66;19051.78;5112776;28;20226;-61
2024/04/02 05:53:28;;;;;;;3.57;1.73;;;10.70;99.90;;;-141.84;63.61;19061.94;5100663;28;20220;-62
2024/04/02 05:55:55;;;;;;;1.50;1.40;;;10.70;99.90;;;-141.84;62.79;19049.75;5116277;27;20202;-61
2024/04/02 05:58:22;;;;;;;3.30;1.50;;;10.80;99.90;;;-141.84;62.02;19068.03;5115789;27;20665;-60
2024/04/02 06:00:50;;;;;;;1.67;1.57;;;10.80;99.90;;;-141.84;62.35;19053.81;5115819;27;20290;-61
2024/04/02 06:03:17;;;;;;;2.67;1.50;;;10.90;99.90;;;-141.84;60.75;19116.81;5114986;27;20234;-61
2024/04/02 06:05:43;;;;;;;3.80;1.43;;;11.00;99.90;;;-141.84;60.35;19102.56;5116135;27;20268;-61
2024/04/02 06:08:11;;;;;;;1.60;1.30;;;11.10;99.90;;;-141.84;59.81;19094.44;5116497;27;20229;-62
2024/04/02 06:10:37;;;;;;;1.97;1.43;;;11.20;99.90;;;-141.84;59.26;19139.16;5115298;27;20259;-61
2024/04/02 06:13:05;;;;;;;2.60;1.50;;;11.20;99.90;;;-141.84;59.62;19090.38;5110916;28;20223;-61
2024/04/02 06:15:31;;;;;;;1.40;1.30;;;11.20;99.90;;;-141.84;60.79;19088.34;5112090;28;20218;-61
2024/04/02 06:18:00;;;;;;;1.90;1.50;;;11.20;99.90;;;-141.84;59.88;19114.78;5112545;27;20226;-62
2024/04/02 06:20:26;;;;;;;2.23;1.67;;;11.20;99.90;;;-141.84;60.75;19094.44;5115098;27;20643;-62
2024/04/02 06:22:53;;;;;;;1.47;1.20;;;11.10;99.90;;;-141.84;61.20;19090.38;5110559;27;20195;-61
2024/04/02 06:25:19;;;;;;;2.90;1.60;;;11.00;99.90;;;-141.84;61.71;19063.97;5111296;27;20681;-63
2024/04/02 06:27:47;;;;;;;2.43;1.40;;;10.80;99.90;;;-141.84;61.75;19057.88;5115119;27;20225;-61
2024/04/02 06:30:13;;;;;;;1.57;1.40;;;10.80;99.90;;;-141.84;61.63;19070.06;5111975;28;20219;-61
2024/04/02 06:32:40;;;;;;;3.53;1.50;;;10.90;99.90;;;-141.84;60.78;19086.31;5112216;27;20246;-62
2024/04/02 06:35:08;;;;;;;2.30;1.50;;;11.00;99.90;;;-141.84;59.94;19096.47;5115551;27;20198;-62
2024/04/02 06:37:35;;;;;;;3.27;1.40;;;11.10;99.90;;;-141.84;58.90;19129.00;5109584;28;20702;-61
2024/04/02 06:40:02;;;;;;;4.00;1.40;;;11.30;99.90;;;-141.84;57.34;19171.66;5112452;27;20750;-62
2024/04/02 06:42:29;;;;;;;1.73;1.43;;;11.50;99.90;;;-141.84;56.76;19187.91;5111488;28;20210;-61
2024/04/02 06:44:56;;;;;;;1.67;1.43;;;11.70;99.90;;;-141.84;56.12;19198.09;5114584;27;20263;-62
2024/04/02 06:47:23;;;;;;;2.50;1.43;;;11.80;99.90;;;-141.84;56.25;19169.63;5114914;27;20207;-61
2024/04/02 06:49:49;;;;;;;1.50;1.40;;;11.80;99.90;;;-141.84;55.78;19194.03;5111817;28;20256;-60
2024/04/02 06:52:18;;;;;;;1.70;1.40;;;11.90;99.90;;;-141.84;56.45;19177.75;5108768;28;20580;-61
2024/04/02 06:54:44;;;;;;;2.27;1.30;;;11.90;99.90;;;-141.84;56.39;19196.06;5112377;27;20240;-61
2024/04/02 06:57:12;;;;;;;4.73;1.50;;;11.90;99.90;;;-141.84;55.94;19208.25;5111226;28;20753;-61
2024/04/02 06:59:38;;;;;;;2.30;1.23;;;11.90;99.90;;;-141.84;55.33;19194.03;5110866;28;20631;-60
2024/04/02 07:02:06;;;;;;;2.07;1.40;;;12.00;99.90;;;-141.84;55.39;19187.91;5114772;27;20202;-61
2024/04/02 07:04:33;;;;;;;1.77;1.40;;;12.00;99.90;;;-141.84;55.29;19214.34;5110907;28;20215;-60
2024/04/02 07:07:00;;;;;;;3.77;1.60;;;12.00;99.90;;;-141.84;55.85;19175.72;5111063;28;20233;-60
2024/04/02 07:09:28;;;;;;;2.47;1.60;;;12.00;99.90;;;-141.84;55.21;19244.81;5110918;28;20567;-61
2024/04/02 07:11:55;;;;;;;1.80;1.40;;;12.10;99.90;;;-141.84;54.15;19234.66;5114319;27;20226;-61
2024/04/02 07:14:22;;;;;;;1.77;1.60;;;12.20;99.90;;;-141.84;52.94;19287.50;5113760;27;20222;-62
2024/04/02 07:16:49;;;;;;;3.00;1.30;;;12.50;99.90;;;-141.84;52.12;19287.50;5114381;27;20639;-61
2024/04/02 07:19:15;;;;;;;2.30;1.47;;;12.80;99.90;;;-141.84;51.78;19273.28;5113924;27;20244;-61
2024/04/02 07:21:43;;;;;;;2.80;1.30;;;12.90;99.90;;;-141.84;52.28;19265.13;5109328;28;20218;-60
2024/04/02 07:24:09;;;;;;;3.27;1.50;;;12.80;99.90;;;-141.84;53.53;19234.66;5111476;27;20279;-61
2024/04/02 07:26:38;;;;;;;2.23;1.53;;;12.50;99.90;;;-141.84;53.77;19218.41;5110844;28;20219;-62
2024/04/02 07:29:04;;;;;;;2.23;1.20;;;12.30;99.90;;;-141.84;54.69;19210.28;5111140;28;20195;-62
2024/04/02 07:31:32;;;;;;;3.20;1.43;;;12.20;99.90;;;-141.84;53.92;19285.47;5113106;27;20214;-61
2024/04/02 07:33:58;;;;;;;3.73;1.70;;;12.30;99.90;;;-141.84;52.80;19269.22;5113459;27;20222;-62
2024/04/02 07:36:25;;;;;;;3.73;1.80;;;12.50;99.90;;;-141.84;52.49;19271.25;5110361;28;20215;-61
2024/04/02 07:38:51;;;;;;;2.57;1.53;;;12.60;99.90;;;-141.84;52.39;19293.59;5110375;27;20637;-61
2024/04/02 07:41:19;;;;;;;3.10;1.43;;;12.70;99.90;;;-141.84;51.40;19346.44;5113756;27;20187;-61
2024/04/02 07:43:47;;;;;;;2.57;1.50;;;13.00;99.90;;;-141.84;50.47;19387.06;5114241;27;20252;-61
2024/04/02 07:46:14;;;;;;;1.85;1.60;;;13.30;99.90;;;-141.84;50.14;19354.56;5113267;27;20223;-61
2024/04/02 07:48:40;;;;;;;2.50;1.47;;;13.40;99.90;;;-141.84;49.51;19378.94;5113755;27;20223;-62
2024/04/02 07:51:11;;;;;;;3.08;1.27;;;13.50;99.90;;;-141.84;49.55;19439.91;5109950;28;20231;-63
2024/04/02 07:53:38;;;;;;;2.83;1.43;;;13.50;99.90;;;-141.84;49.44;19439.91;5101242;28;20227;-61
2024/04/02 07:56:05;;;;;;;3.78;1.50;;;13.70;99.90;;;-141.84;49.65;19448.03;5114077;27;20205;-60
2024/04/02 07:58:32;;;;;;;4.25;1.52;;;13.70;99.90;;;-141.84;48.98;19439.91;5113533;27;20219;-61
2024/04/02 08:01:00;;;;;;;3.30;1.30;;;13.80;99.90;;;-141.84;49.45;19401.28;5110216;28;20216;-61
2024/04/02 08:03:27;;;;;;;5.03;1.50;;;13.70;99.90;;;-141.84;49.80;19370.81;5105525;27;20215;-60
2024/04/02 08:05:57;;;;;;;4.33;1.50;;;13.60;99.90;;;-141.84;49.77;19401.28;5113799;27;20238;-61
2024/04/02 08:08:24;;;;;;;3.83;1.60;;;13.50;99.90;;;-141.84;49.93;19389.09;5113268;27;20255;-61
2024/04/02 08:10:51;;;;;;;3.63;1.53;;;13.40;99.90;;;-141.84;49.89;19395.19;5110758;28;20195;-61
2024/04/02 08:13:17;;;;;;;3.10;1.23;;;13.40;99.90;;;-141.84;49.83;19405.34;5108813;28;20242;-63
2024/04/02 08:15:47;;;;;;;4.00;1.43;;;13.40;99.90;;;-141.84;49.98;19383.00;5109832;27;20219;-61
2024/04/02 08:18:15;;;;;;;5.00;1.80;;;13.40;99.90;;;-141.84;50.24;19383.00;5113494;27;20570;-61
2024/04/02 08:20:42;;;;;;;2.30;1.50;;;13.30;99.90;;;-141.84;50.17;19358.63;5109682;28;20750;-61
2024/04/02 08:23:09;;;;;;;1.60;1.33;;;13.30;99.90;;;-141.84;49.66;19383.00;5111959;27;20201;-62
2024/04/02 08:25:36;;;;;;;4.40;1.23;;;13.40;99.90;;;-141.84;49.31;19421.63;5113579;27;20275;-61
2024/04/02 08:28:03;;;;;;;1.80;1.50;;;13.40;99.90;;;-141.84;50.02;19350.50;5113415;27;20236;-62
2024/04/02 08:30:30;;;;;;;3.37;1.43;;;13.30;99.90;;;-141.84;49.93;19389.09;5105421;28;20282;-61
2024/04/02 08:32:57;;;;;;;2.63;1.00;;;13.20;99.90;;;-141.84;49.64;19403.31;5109656;28;20577;-61
2024/04/02 08:35:25;;;;;;;4.07;1.10;;;13.30;99.90;;;-141.84;48.94;19443.97;5112891;28;20196;-61
2024/04/02 08:37:52;;;;;;;1.37;1.00;;;13.40;99.90;;;-141.84;48.54;19439.91;5117994;27;20199;-61
2024/04/02 08:40:19;;;;;;;1.63;1.00;;;13.50;99.90;;;-141.84;48.48;19423.66;5119807;27;20214;-61
2024/04/02 08:42:52;;;;;;;1.92;1.05;;;13.50;99.90;;;-141.84;48.62;19419.59;5119995;27;20210;-60
2024/04/02 08:45:20;;;;;;;2.30;1.43;;;13.40;99.90;;;-141.84;49.76;19395.19;5119941;27;20222;-60
2024/04/02 08:47:47;;;;;;;3.37;1.07;;;13.20;99.90;;;-141.84;50.21;19334.22;5116339;28;20702;-62
2024/04/02 08:50:19;;;;;;;1.67;0.90;;;13.00;99.90;;;-141.84;50.74;19320.00;5116185;28;20207;-62
2024/04/02 08:52:50;;;;;;;1.87;1.13;;;12.70;99.90;;;-141.84;51.15;19305.78;5111634;27;20335;-61
2024/04/02 08:55:19;;;;;;;2.43;1.07;;;12.60;99.90;;;-141.84;51.04;19309.84;5116443;28;20223;-61
2024/04/02 08:57:49;;;;;;;4.23;1.17;;;12.60;99.90;;;-141.84;50.05;19372.84;5116186;27;20223;-61
2024/04/02 09:00:18;;;;;;;3.73;0.90;;;12.90;99.90;;;-141.84;49.50;19411.44;5119872;27;20304;-61
2024/04/02 09:02:46;;;;;;;2.20;1.30;;;13.10;99.90;;;-141.84;49.38;19393.16;5116093;28;20230;-61
2024/04/02 09:05:13;;;;;;;3.57;1.20;;;13.20;99.90;;;-141.84;49.73;19378.94;5117933;27;20214;-61
2024/04/02 09:07:40;;;;;;;1.83;0.83;;;13.30;99.90;;;-141.84;49.36;19385.03;5119596;27;20217;-61
2024/04/02 09:10:09;;;;;;;1.20;0.97;;;13.30;99.90;;;-141.84;49.28;19405.34;5119315;27;20229;-61
2024/04/02 09:12:35;;;;;;;1.40;1.10;;;13.30;99.90;;;-141.84;49.19;19405.34;5118891;27;20276;-61
2024/04/02 09:15:03;;;;;;;2.58;1.13;;;13.30;99.90;;;-141.84;48.95;19417.56;5116188;28;20232;-61
2024/04/02 09:17:30;;;;;;;1.50;1.00;;;13.40;99.90;;;-141.84;48.55;19443.97;5115911;28;20264;-61
2024/04/02 09:19:57;;;;;;;3.13;1.10;;;13.60;99.90;;;-141.84;47.74;19494.78;5117435;27;20206;-62
2024/04/02 09:22:23;;;;;;;3.88;1.15;;;14.00;99.90;;;-141.84;46.71;19525.25;5113176;27;20225;-61
2024/04/02 09:24:52;;;;;;;1.10;0.90;;;14.30;99.90;;;-141.84;47.43;19557.78;5119463;27;20271;-61
2024/04/02 09:27:21;;;;;;;2.15;1.10;;;14.20;99.90;;;-141.84;47.92;19427.72;5116489;27;20226;-60
2024/04/02 09:29:49;;;;;;;4.15;1.10;;;13.90;99.90;;;-141.84;48.48;19446.00;5119358;27;20223;-60
2024/04/02 09:32:17;;;;;;;1.55;1.00;;;13.70;99.90;;;-141.84;48.31;19433.81;5119170;27;20226;-61
2024/04/02 09:34:47;;;;;;;1.45;0.80;;;13.60;99.90;;;-141.84;48.69;19443.97;5119257;27;20712;-61
2024/04/02 09:37:34;;;;;;;0.97;0.83;;;13.60;99.90;;;-141.84;48.37;19431.78;5116003;28;20264;-61
2024/04/02 09:40:04;;;;;;;2.20;0.90;;;13.60;99.90;;;-141.84;48.56;19448.03;5117814;27;20564;-61
2024/04/02 09:42:33;;;;;;;1.17;0.85;;;13.60;99.90;;;-141.84;48.18;19441.94;5119152;27;20273;-61
2024/04/02 09:45:03;;;;;;;1.80;0.83;;;13.50;99.90;;;-141.84;49.11;19429.75;5119060;27;20223;-62
2024/04/02 09:47:31;;;;;;;1.93;0.93;;;13.40;99.90;;;-141.84;49.23;19409.41;5107241;27;20326;-62
2024/04/02 09:50:01;;;;;;;2.73;1.00;;;13.40;99.90;;;-141.84;49.41;19425.69;5116584;27;20213;-62
2024/04/02 09:52:28;;;;;;;2.70;0.80;;;13.30;99.90;;;-141.84;49.02;19403.31;5106988;27;20223;-61
2024/04/02 09:54:58;;;;;;;2.17;0.83;;;13.30;99.90;;;-141.84;49.24;19407.38;5115758;27;20214;-61
2024/04/02 09:57:25;;;;;;;2.10;0.77;;;13.50;99.90;;;-141.84;48.33;19439.91;5112337;28;20680;-61
2024/04/02 09:59:54;;;;;;;1.43;0.97;;;13.60;99.90;;;-141.84;48.50;19429.75;5113200;27;20222;-61
2024/04/02 10:02:25;;;;;;;2.20;1.00;;;13.50;99.90;;;-141.84;48.92;19425.69;5111785;28;20567;-62
2024/04/02 10:04:54;;;;;;;1.85;0.98;;;13.50;99.90;;;-141.84;48.59;19427.72;5112767;28;20195;-61
2024/04/02 10:07:21;;;;;;;3.43;0.97;;;13.50;99.90;;;-141.84;47.74;19472.41;5113949;27;20222;-61